Deering Airport Deering US
ICAO: PADE
IATA:
Category: Medium
Scheduled Services:

Elevation: 21 ft
TransAlt. 18000 ft.

Airport Communications:
ANCHORAGE CNTR:119.2
ASOS:135.5
CTAF:122.9

PADE Zoom In..

Runways:

(A) RW 02 length 3320 ft width 75 ft
---- / hdg 21

(B) RW 11 length 2660 ft width 75 ft
---- / hdg 110

(C) RW 20 length 3320 ft width 75 ft
---- / hdg 201

(D) RW 29 length 2660 ft width 75 ft
---- / hdg 290

Location; PADE
Day. 16 / Time. 17.53 Zulu
* Altimeter: 29.86
* Temperature: 6/° c. 42.8°f.
* Wind from: 230° Speed 13 kn.
Dewpoint: //° c.
Visibility: 10 Statute Miles.
Clouds: Broken 1800 ft.
Clouds: Broken 2300 ft.
Clouds: Overcast 3200 ft.
Conditions: Light Rain.

PADE 161753Z AUTO 23013KT 10SM -RA BKN018 BKN023 OVC032 07/06 A2986 RMK AO2 RAB50 SLP112 6//// T00720056 10083 20061 51009 TSNO PNO $


Wind From 230°
Speed 13 kn.

 
 
jpsmedia.com for Web Design worldairports.se 2018   terms of use